createdAt,value
2022-08-07T00:01:44.002Z,72.70
2022-08-07T00:04:11.340Z,72.52
2022-08-07T00:06:51.632Z,73.12
2022-08-07T00:09:22.309Z,72.88
2022-08-07T00:11:56.012Z,73.33
2022-08-07T00:14:31.279Z,73.11
2022-08-07T00:17:03.662Z,73.74
2022-08-07T00:20:01.308Z,73.74
2022-08-07T00:22:35.070Z,73.30
2022-08-07T00:25:07.063Z,73.93
2022-08-07T00:27:52.869Z,73.73
2022-08-07T00:30:27.296Z,73.53
2022-08-07T00:32:59.025Z,73.51
2022-08-07T00:35:29.559Z,73.74
2022-08-07T00:37:59.002Z,73.69
2022-08-07T00:40:36.257Z,73.36
2022-08-07T00:43:12.833Z,73.68
2022-08-07T00:45:58.371Z,73.69
2022-08-07T00:48:32.173Z,73.05
2022-08-07T00:51:02.602Z,72.99
2022-08-07T00:53:38.551Z,73.20
2022-08-07T00:56:19.285Z,72.99
2022-08-07T00:58:49.680Z,73.29
2022-08-07T01:01:20.944Z,73.29
2022-08-07T01:03:55.449Z,72.98
2022-08-07T01:06:27.688Z,72.69
2022-08-07T01:08:58.340Z,72.79
2022-08-07T01:12:09.831Z,73.42
2022-08-07T01:14:16.688Z,73.09
2022-08-07T01:16:47.382Z,73.63
2022-08-07T01:19:19.981Z,73.82
2022-08-07T01:21:55.147Z,73.96
2022-08-07T01:24:24.386Z,73.83
2022-08-07T01:26:53.948Z,73.82
2022-08-07T01:29:27.634Z,73.77
2022-08-07T01:31:59.903Z,73.95
2022-08-07T01:34:31.577Z,73.94
2022-08-07T01:37:02.278Z,73.79
2022-08-07T01:39:41.184Z,74.66
2022-08-07T01:42:39.433Z,74.33
2022-08-07T01:45:15.800Z,74.32
2022-08-07T01:48:19.928Z,74.49
2022-08-07T01:50:40.214Z,74.33
2022-08-07T01:53:21.077Z,74.60
2022-08-07T01:55:54.322Z,75.03
2022-08-07T01:58:29.233Z,74.92
2022-08-07T02:01:09.937Z,75.27
2022-08-07T02:03:59.522Z,75.32
2022-08-07T02:06:32.509Z,75.10
2022-08-07T02:09:06.323Z,75.69
2022-08-07T02:12:02.753Z,75.87
2022-08-07T02:14:35.685Z,75.77
2022-08-07T02:17:06.091Z,76.29
2022-08-07T02:20:04.501Z,76.51
2022-08-07T02:22:26.217Z,76.95
2022-08-07T02:24:58.909Z,76.66
2022-08-07T02:27:34.223Z,76.46
2022-08-07T02:30:07.385Z,76.75
2022-08-07T02:32:39.582Z,76.82
2022-08-07T02:36:29.913Z,76.42
2022-08-07T02:38:17.349Z,76.60
2022-08-07T02:40:55.672Z,76.44
2022-08-07T02:43:26.474Z,76.26
2022-08-07T02:45:58.252Z,76.37
2022-08-07T02:48:28.484Z,76.54
2022-08-07T02:50:58.113Z,76.39
2022-08-07T02:53:38.255Z,76.64
2022-08-07T02:56:21.051Z,76.41
2022-08-07T02:58:55.106Z,76.34
2022-08-07T03:01:36.106Z,76.24
2022-08-07T03:04:12.451Z,76.77
2022-08-07T03:06:46.000Z,76.91
2022-08-07T03:09:43.377Z,77.11
2022-08-07T03:12:14.198Z,77.11
2022-08-07T03:14:52.748Z,77.43
2022-08-07T03:17:22.070Z,77.34
2022-08-07T03:19:54.834Z,77.56
2022-08-07T03:22:29.579Z,77.70
2022-08-07T03:24:59.908Z,78.02
2022-08-07T03:27:42.222Z,78.10
2022-08-07T03:30:19.246Z,78.25
2022-08-07T03:32:58.925Z,77.95
2022-08-07T03:35:43.785Z,78.41
2022-08-07T03:38:20.832Z,78.44
2022-08-07T03:40:57.503Z,78.73
2022-08-07T03:43:32.219Z,78.77
2022-08-07T03:46:03.700Z,78.51
2022-08-07T03:48:45.591Z,78.54
2022-08-07T03:51:30.856Z,78.68
2022-08-07T03:54:35.336Z,78.83
2022-08-07T03:57:07.133Z,78.92
2022-08-07T03:59:46.844Z,78.92
2022-08-07T04:02:27.363Z,78.96
2022-08-07T04:04:55.754Z,78.58
2022-08-07T04:07:25.768Z,78.98
2022-08-07T04:10:05.612Z,79.02
2022-08-07T04:12:35.234Z,78.95
2022-08-07T04:15:05.715Z,78.90
2022-08-07T04:18:57.147Z,78.82
2022-08-07T04:20:22.644Z,78.45
2022-08-07T04:23:01.490Z,78.95
2022-08-07T04:25:31.525Z,78.71
2022-08-07T04:28:08.128Z,78.48
2022-08-07T04:30:43.623Z,78.69
2022-08-07T04:33:25.781Z,78.49
2022-08-07T04:35:54.573Z,78.86
2022-08-07T04:38:23.499Z,78.54
2022-08-07T04:40:56.519Z,78.24
2022-08-07T04:44:13.090Z,78.27
2022-08-07T04:46:35.972Z,78.20
2022-08-07T04:49:37.693Z,77.96
2022-08-07T04:52:18.590Z,77.83
2022-08-07T04:54:55.330Z,77.59
2022-08-07T04:58:25.681Z,77.59
2022-08-07T05:00:35.005Z,77.65
2022-08-07T05:04:00.500Z,77.89
2022-08-07T05:06:19.752Z,77.60
2022-08-07T05:09:00.894Z,77.77
2022-08-07T05:11:57.691Z,77.76
2022-08-07T05:14:55.284Z,77.18
2022-08-07T05:17:51.696Z,77.39
2022-08-07T05:20:15.132Z,77.48
2022-08-07T05:22:47.582Z,76.71
2022-08-07T05:25:26.259Z,76.70
2022-08-07T05:28:20.286Z,76.28
2022-08-07T05:30:52.672Z,76.23
2022-08-07T05:33:22.427Z,76.05
2022-08-07T05:35:53.051Z,75.73
2022-08-07T05:39:01.045Z,74.82
2022-08-07T05:41:15.635Z,74.96
2022-08-07T05:44:01.226Z,74.47
2022-08-07T05:46:37.595Z,74.30
2022-08-07T05:49:12.350Z,73.87
2022-08-07T05:51:46.631Z,74.02
2022-08-07T05:54:44.182Z,73.04
2022-08-07T05:57:06.440Z,72.96
2022-08-07T05:59:57.592Z,73.00
2022-08-07T06:02:30.754Z,72.32
2022-08-07T06:05:04.577Z,72.19
2022-08-07T06:08:12.339Z,71.88
2022-08-07T06:10:25.297Z,71.62
2022-08-07T06:12:54.493Z,71.07
2022-08-07T06:15:39.479Z,70.46
2022-08-07T06:18:13.762Z,69.99
2022-08-07T06:20:50.955Z,70.06
2022-08-07T06:24:37.148Z,69.36
2022-08-07T06:26:27.529Z,68.86
2022-08-07T06:29:00.035Z,68.19
2022-08-07T06:31:49.354Z,67.81
2022-08-07T06:34:19.587Z,67.50
2022-08-07T06:36:48.154Z,67.50
2022-08-07T06:40:16.427Z,66.69
2022-08-07T06:42:16.575Z,65.85
2022-08-07T06:44:51.253Z,65.59
2022-08-07T06:47:21.126Z,64.96
2022-08-07T06:49:50.931Z,64.18
2022-08-07T06:52:31.792Z,63.51
2022-08-07T06:55:34.501Z,63.04
2022-08-07T06:58:02.687Z,62.79
2022-08-07T07:00:36.657Z,62.49
2022-08-07T07:03:10.592Z,62.06
2022-08-07T07:06:03.982Z,61.88
2022-08-07T07:08:33.222Z,61.55
2022-08-07T07:11:13.552Z,60.75
2022-08-07T07:13:58.424Z,59.96
2022-08-07T07:16:45.081Z,59.62
2022-08-07T07:19:55.547Z,59.44
2022-08-07T07:22:36.193Z,58.84
2022-08-07T07:26:31.280Z,58.15
2022-08-07T07:28:03.168Z,57.76
2022-08-07T07:30:40.756Z,57.75
2022-08-07T07:33:12.396Z,57.17
2022-08-07T07:36:04.042Z,56.42
2022-08-07T07:38:36.094Z,56.27
2022-08-07T07:41:08.664Z,55.67
2022-08-07T07:44:14.314Z,55.74
2022-08-07T07:46:53.515Z,55.58
2022-08-07T07:50:33.877Z,54.56
2022-08-07T07:52:16.400Z,54.95
2022-08-07T07:54:51.515Z,54.27
2022-08-07T07:57:52.476Z,53.84
2022-08-07T08:00:29.892Z,54.06
2022-08-07T08:03:08.675Z,53.78
2022-08-07T08:05:55.098Z,52.79
2022-08-07T08:08:34.764Z,52.49
2022-08-07T08:11:08.220Z,51.89
2022-08-07T08:13:53.032Z,52.14
2022-08-07T08:16:29.590Z,51.77
2022-08-07T08:19:09.838Z,51.49
2022-08-07T08:22:07.835Z,51.13
2022-08-07T08:25:18.155Z,50.47
2022-08-07T08:27:56.215Z,50.67
2022-08-07T08:30:28.958Z,50.93
2022-08-07T08:33:04.235Z,51.34
2022-08-07T08:35:39.386Z,50.28
2022-08-07T08:38:18.419Z,50.08
2022-08-07T08:40:55.950Z,48.84
2022-08-07T08:43:42.804Z,48.46
2022-08-07T08:46:38.174Z,47.96
2022-08-07T08:49:18.716Z,47.45
2022-08-07T08:52:16.480Z,47.76
2022-08-07T08:54:55.171Z,47.18
2022-08-07T08:57:40.109Z,46.60
2022-08-07T09:00:13.953Z,46.07
2022-08-07T09:02:55.425Z,45.77
2022-08-07T09:05:37.305Z,45.49
2022-08-07T09:08:28.253Z,45.15
2022-08-07T09:11:24.809Z,44.86
2022-08-07T09:14:17.991Z,44.94
2022-08-07T09:17:02.076Z,44.31
2022-08-07T09:19:53.575Z,43.50
2022-08-07T09:24:33.795Z,44.27
2022-08-07T09:25:55.115Z,43.91
2022-08-07T09:30:06.492Z,43.75
2022-08-07T09:31:39.439Z,43.65
2022-08-07T09:34:22.090Z,42.95
2022-08-07T09:37:03.666Z,43.14
2022-08-07T09:39:53.953Z,42.79
2022-08-07T09:42:41.929Z,42.58
2022-08-07T09:47:26.284Z,42.22
2022-08-07T09:48:43.952Z,41.75
2022-08-07T09:52:10.241Z,41.63
2022-08-07T09:54:40.717Z,41.28
2022-08-07T09:57:47.088Z,41.54
2022-08-07T10:00:18.922Z,41.51
2022-08-07T10:04:05.051Z,40.91
2022-08-07T10:06:40.413Z,40.59
2022-08-07T10:10:00.768Z,40.35
2022-08-07T10:12:54.158Z,40.55
2022-08-07T10:15:51.090Z,40.84
2022-08-07T10:18:53.718Z,40.42
2022-08-07T10:22:14.605Z,40.05
2022-08-07T10:24:50.884Z,40.82
2022-08-07T10:27:46.370Z,40.37
2022-08-07T10:30:17.919Z,40.72
2022-08-07T10:34:05.706Z,39.88
2022-08-07T10:36:30.189Z,40.74
2022-08-07T10:39:17.277Z,39.40
2022-08-07T10:42:02.985Z,39.72
2022-08-07T10:44:50.124Z,40.23
2022-08-07T10:47:53.849Z,38.97
2022-08-07T10:50:29.980Z,38.05
2022-08-07T10:53:21.427Z,37.62
2022-08-07T10:56:05.195Z,37.07
2022-08-07T10:59:08.189Z,38.19
2022-08-07T11:01:52.038Z,37.10
2022-08-07T11:04:53.943Z,37.43
2022-08-07T11:07:58.551Z,37.33
2022-08-07T11:10:31.264Z,37.30
2022-08-07T11:14:42.200Z,36.91
2022-08-07T11:16:19.497Z,36.09
2022-08-07T11:18:53.050Z,36.56
2022-08-07T11:21:32.678Z,37.28
2022-08-07T11:24:18.975Z,36.92
2022-08-07T11:26:53.891Z,36.30
2022-08-07T11:29:42.613Z,35.65
2022-08-07T11:32:26.914Z,34.97
2022-08-07T11:35:03.049Z,35.67
2022-08-07T11:38:12.817Z,35.97
2022-08-07T11:40:57.447Z,35.77
2022-08-07T11:43:54.429Z,34.95
2022-08-07T11:46:40.794Z,35.13
2022-08-07T11:50:25.529Z,34.44
2022-08-07T11:52:46.639Z,33.72
2022-08-07T11:56:09.273Z,33.51
2022-08-07T11:58:42.615Z,31.62
2022-08-07T12:01:59.777Z,30.98
2022-08-07T12:04:47.401Z,30.32
2022-08-07T12:07:27.497Z,30.37
2022-08-07T12:10:16.260Z,30.66
2022-08-07T12:12:51.534Z,29.21
2022-08-07T12:15:57.927Z,29.38
2022-08-07T12:18:22.018Z,28.80
2022-08-07T12:21:20.990Z,29.05
2022-08-07T12:24:36.916Z,28.98
2022-08-07T12:27:14.965Z,27.71
2022-08-07T12:29:53.031Z,28.01
2022-08-07T12:32:32.221Z,27.40
2022-08-07T12:35:05.603Z,26.73
2022-08-07T12:38:09.435Z,26.76
2022-08-07T12:40:47.581Z,26.66
2022-08-07T12:44:01.460Z,25.23
2022-08-07T12:46:32.458Z,25.17
2022-08-07T12:49:39.884Z,24.74
2022-08-07T12:52:13.717Z,24.91
2022-08-07T12:54:59.026Z,24.96
2022-08-07T12:57:59.198Z,24.84
2022-08-07T13:00:32.918Z,25.39
2022-08-07T13:04:02.364Z,24.70
2022-08-07T13:06:37.296Z,24.34
2022-08-07T13:10:19.283Z,23.68
2022-08-07T13:12:53.212Z,24.99
2022-08-07T13:15:35.242Z,26.57
2022-08-07T13:18:26.498Z,26.70
2022-08-07T13:21:04.139Z,25.58
2022-08-07T13:24:01.195Z,24.47
2022-08-07T13:26:44.568Z,23.90
2022-08-07T13:29:21.760Z,23.75
2022-08-07T13:31:57.801Z,23.88
2022-08-07T13:34:48.517Z,23.98
2022-08-07T13:37:31.695Z,22.26
2022-08-07T13:40:33.906Z,22.72
2022-08-07T13:43:11.817Z,23.62
2022-08-07T13:46:21.852Z,23.84
2022-08-07T13:48:38.786Z,25.57
2022-08-07T13:51:28.581Z,26.52
2022-08-07T13:54:06.097Z,26.23
2022-08-07T13:56:41.369Z,25.40
2022-08-07T13:59:27.154Z,25.61
2022-08-07T14:02:07.552Z,25.60
2022-08-07T14:04:54.336Z,25.68
2022-08-07T14:07:28.261Z,26.58
2022-08-07T14:10:15.632Z,26.61
2022-08-07T14:12:55.700Z,25.62
2022-08-07T14:15:41.042Z,24.15
2022-08-07T14:18:29.021Z,23.63
2022-08-07T14:21:20.759Z,22.95
2022-08-07T14:24:06.289Z,23.01
2022-08-07T14:26:50.724Z,22.12
2022-08-07T14:30:08.006Z,22.17
2022-08-07T14:32:15.072Z,21.21
2022-08-07T14:34:47.085Z,21.24
2022-08-07T14:37:18.554Z,21.28
2022-08-07T14:40:15.987Z,20.35
2022-08-07T14:43:55.112Z,19.90
2022-08-07T14:51:16.296Z,20.54
2022-08-07T14:54:08.573Z,22.77
2022-08-07T14:56:40.571Z,21.85
2022-08-07T14:59:13.660Z,21.24
2022-08-07T15:02:33.037Z,20.81
2022-08-07T15:05:02.242Z,20.16
2022-08-07T15:07:50.945Z,19.93
2022-08-07T15:10:26.084Z,19.33
2022-08-07T15:12:59.390Z,18.75
2022-08-07T15:15:39.002Z,18.44
2022-08-07T15:25:15.912Z,19.21
2022-08-07T15:27:05.232Z,19.61
2022-08-07T15:30:06.636Z,18.43
2022-08-07T15:36:01.295Z,17.45
2022-08-07T15:41:24.481Z,17.22
2022-08-07T15:44:03.956Z,17.62
2022-08-07T15:50:05.326Z,19.79
2022-08-07T15:52:30.800Z,19.96
2022-08-07T15:55:08.852Z,19.57
2022-08-07T15:57:49.160Z,18.34
2022-08-07T16:00:31.288Z,17.74
2022-08-07T16:03:06.402Z,17.54
2022-08-07T16:05:42.515Z,17.95
2022-08-07T16:08:31.866Z,18.70
2022-08-07T16:11:26.327Z,21.17
2022-08-07T16:14:10.601Z,22.65
2022-08-07T16:17:01.004Z,24.13
2022-08-07T16:20:03.924Z,25.79
2022-08-07T16:23:05.439Z,26.40
2022-08-07T16:25:56.609Z,27.12
2022-08-07T16:30:06.461Z,26.08
2022-08-07T16:32:03.728Z,24.33
2022-08-07T16:34:45.282Z,22.68
2022-08-07T16:38:09.353Z,21.35
2022-08-07T16:41:18.985Z,21.48
2022-08-07T16:45:14.380Z,20.81
2022-08-07T16:48:27.832Z,20.13
2022-08-07T16:52:01.489Z,20.40
2022-08-07T16:54:33.048Z,19.77
2022-08-07T16:58:01.996Z,19.49
2022-08-07T17:00:30.155Z,19.51
2022-08-07T17:03:59.498Z,19.41
2022-08-07T17:06:44.774Z,19.72
2022-08-07T17:10:05.158Z,19.80
2022-08-07T17:12:33.833Z,19.38
2022-08-07T17:15:18.299Z,20.88
2022-08-07T17:18:11.535Z,22.52
2022-08-07T17:20:42.626Z,24.07
2022-08-07T17:23:38.290Z,24.94
2022-08-07T17:26:24.025Z,25.15
2022-08-07T17:30:12.598Z,26.40
2022-08-07T17:32:31.404Z,27.92
2022-08-07T17:35:51.817Z,28.51
2022-08-07T17:38:34.418Z,29.18
2022-08-07T17:42:01.057Z,29.93
2022-08-07T17:44:06.656Z,28.47
2022-08-07T17:47:00.610Z,27.64
2022-08-07T17:49:45.249Z,28.13
2022-08-07T17:52:39.592Z,28.06
2022-08-07T17:55:13.912Z,28.70
2022-08-07T17:57:58.625Z,29.33
2022-08-07T18:00:48.440Z,29.19
2022-08-07T18:03:26.563Z,29.19
2022-08-07T18:06:06.630Z,28.86
2022-08-07T18:09:01.828Z,29.72
2022-08-07T18:12:17.869Z,30.07
2022-08-07T18:14:46.216Z,30.10
2022-08-07T18:18:44.695Z,30.59
2022-08-07T18:21:08.514Z,30.97
2022-08-07T18:23:43.321Z,31.71
2022-08-07T18:26:23.518Z,33.06
2022-08-07T18:30:04.539Z,33.35
2022-08-07T18:32:16.755Z,34.45
2022-08-07T18:35:15.678Z,35.41
2022-08-07T18:38:59.169Z,35.77
2022-08-07T18:41:16.778Z,37.16
2022-08-07T18:44:11.567Z,38.60
2022-08-07T18:46:48.271Z,40.02
2022-08-07T18:50:30.968Z,40.94
2022-08-07T18:53:03.005Z,42.11
2022-08-07T18:55:56.253Z,43.47
2022-08-07T18:58:39.411Z,44.21
2022-08-07T19:02:33.160Z,45.45
2022-08-07T19:04:39.658Z,45.96
2022-08-07T19:07:34.915Z,46.93
2022-08-07T19:10:14.806Z,47.76
2022-08-07T19:13:12.127Z,48.31
2022-08-07T19:17:05.086Z,48.90
2022-08-07T19:19:00.478Z,49.85
2022-08-07T19:21:54.884Z,50.35
2022-08-07T19:24:37.246Z,50.83
2022-08-07T19:28:29.979Z,51.54
2022-08-07T19:30:55.312Z,52.04
2022-08-07T19:33:08.376Z,52.51
2022-08-07T19:35:45.427Z,53.33
2022-08-07T19:38:18.381Z,54.05
2022-08-07T19:40:51.855Z,54.60
2022-08-07T19:43:49.290Z,55.35
2022-08-07T19:46:18.871Z,55.72
2022-08-07T19:48:57.298Z,55.94
2022-08-07T19:51:51.872Z,56.22
2022-08-07T19:54:31.865Z,56.86
2022-08-07T19:57:51.657Z,57.08
2022-08-07T19:59:57.725Z,57.28
2022-08-07T20:02:31.393Z,57.60
2022-08-07T20:05:07.890Z,57.75
2022-08-07T20:07:46.399Z,58.50
2022-08-07T20:10:35.178Z,58.52
2022-08-07T20:13:22.694Z,59.00
2022-08-07T20:15:57.540Z,59.07
2022-08-07T20:18:32.444Z,59.75
2022-08-07T20:21:21.593Z,60.09
2022-08-07T20:24:00.317Z,60.23
2022-08-07T20:26:32.833Z,61.30
2022-08-07T20:29:46.852Z,61.80
2022-08-07T20:32:11.573Z,61.76
2022-08-07T20:34:53.143Z,62.13
2022-08-07T20:37:29.271Z,62.16
2022-08-07T20:40:02.394Z,62.11
2022-08-07T20:42:35.311Z,62.68
2022-08-07T20:45:32.168Z,62.67
2022-08-07T20:47:58.742Z,62.78
2022-08-07T20:50:30.370Z,63.02
2022-08-07T20:53:00.136Z,63.16
2022-08-07T20:55:32.135Z,63.68
2022-08-07T20:58:08.977Z,63.38
2022-08-07T21:00:49.944Z,64.59
2022-08-07T21:03:23.013Z,64.80
2022-08-07T21:06:00.866Z,64.85
2022-08-07T21:08:38.189Z,65.15
2022-08-07T21:11:14.160Z,65.58
2022-08-07T21:14:16.547Z,65.92
2022-08-07T21:16:56.079Z,65.93
2022-08-07T21:19:32.370Z,65.81
2022-08-07T21:22:19.255Z,65.91
2022-08-07T21:25:12.264Z,66.44
2022-08-07T21:28:01.745Z,66.45
2022-08-07T21:30:41.732Z,66.82
2022-08-07T21:33:18.491Z,66.97
2022-08-07T21:36:06.003Z,67.32
2022-08-07T21:38:54.947Z,67.45
2022-08-07T21:41:37.693Z,67.72
2022-08-07T21:44:29.998Z,67.88
2022-08-07T21:47:07.502Z,68.10
2022-08-07T21:50:02.262Z,67.94
2022-08-07T21:52:43.900Z,68.52
2022-08-07T21:55:28.127Z,67.66
2022-08-07T21:58:30.440Z,67.65
2022-08-07T22:01:14.038Z,67.90
2022-08-07T22:03:48.588Z,67.70
2022-08-07T22:06:30.307Z,68.14
2022-08-07T22:09:07.259Z,68.17
2022-08-07T22:12:05.935Z,68.69
2022-08-07T22:14:38.538Z,68.61
2022-08-07T22:17:38.855Z,68.92
2022-08-07T22:20:23.023Z,69.12
2022-08-07T22:22:57.987Z,69.55
2022-08-07T22:25:38.950Z,69.51
2022-08-07T22:28:31.464Z,69.80
2022-08-07T22:31:09.716Z,69.99
2022-08-07T22:33:56.350Z,69.95
2022-08-07T22:36:38.586Z,70.30
2022-08-07T22:39:23.396Z,70.54
2022-08-07T22:42:18.996Z,70.92
2022-08-07T22:45:02.469Z,70.98
2022-08-07T22:48:31.811Z,70.88
2022-08-07T22:51:23.257Z,71.56
2022-08-07T22:54:09.532Z,71.75
2022-08-07T22:56:53.497Z,71.69
2022-08-07T22:59:51.877Z,71.86
2022-08-07T23:03:02.727Z,71.79
2022-08-07T23:06:15.277Z,71.75
2022-08-07T23:10:04.288Z,71.85
2022-08-07T23:12:07.168Z,72.45
2022-08-07T23:14:48.952Z,72.44
2022-08-07T23:17:45.193Z,72.47
2022-08-07T23:20:40.754Z,72.73
2022-08-07T23:24:11.149Z,72.81
2022-08-07T23:26:54.853Z,72.51
2022-08-07T23:30:39.253Z,72.46
2022-08-07T23:34:35.635Z,72.30
2022-08-07T23:36:22.966Z,72.85
2022-08-07T23:39:08.731Z,73.04
2022-08-07T23:42:04.140Z,73.16
2022-08-07T23:45:02.962Z,73.13
2022-08-07T23:48:01.953Z,73.40
2022-08-07T23:50:38.070Z,73.77
2022-08-07T23:53:26.711Z,74.32
2022-08-07T23:56:24.599Z,74.12
2022-08-07T23:59:10.960Z,74.29
